AAL240 EDDF-KLAX
Flight info
| Callsign | AAL240 |
|---|---|
| Flight time | N/A |
| Altitude | 32000 |
| Route | OBOKA3M/25C OBOKA Z28 DIBIR DCT BUDIP DCT MIMVA DCT GETNO DCT NIBOG DCT PIKIL/M085F340 NATA URTAK/N0501F340 DCT LAKES/N0504F360 DCT 57N070W 55N080W 5230N09000W/N0498F380 DCT KP18A DCT KU06W DCT KD87U DCT KU54O DCT NORRA J107 BLD DCT HAKMN ANJLL4 |
| Aircraft | B742/H-SDFHIRWXY/L |
Departure
| Time | 2026-05-06 08:28 |
|---|---|
| Airport | Frankfurt Main Airport (EDDF) |
Arrival
| Time | N/A |
|---|---|
| Airport | Los Angeles International Airport (KLAX) |
| Time | Latitude | Longitude | Altitude | Speed | Heading |
|---|---|---|---|---|---|
| 2026-05-06 08:08 | 50.05092 | 8.58850 | 381 ft | 0 kts | 341° |
| 2026-05-06 08:19 | 50.05091 | 8.58851 | 380 ft | 1 kts | 341° |
| 2026-05-06 08:19 | 50.05077 | 8.58858 | 379 ft | 2 kts | 341° |
| 2026-05-06 08:19 | 50.05063 | 8.58866 | 379 ft | 2 kts | 341° |
| 2026-05-06 08:19 | 50.05049 | 8.58873 | 378 ft | 2 kts | 338° |
| 2026-05-06 08:20 | 50.05036 | 8.58886 | 376 ft | 2 kts | 317° |
| 2026-05-06 08:20 | 50.05027 | 8.58904 | 375 ft | 2 kts | 301° |
| 2026-05-06 08:20 | 50.05020 | 8.58925 | 375 ft | 2 kts | 285° |
| 2026-05-06 08:20 | 50.05019 | 8.58948 | 374 ft | 2 kts | 268° |
| 2026-05-06 08:21 | 50.05021 | 8.58971 | 374 ft | 2 kts | 252° |
| 2026-05-06 08:21 | 50.05026 | 8.58993 | 374 ft | 2 kts | 247° |
| 2026-05-06 08:21 | 50.05032 | 8.59014 | 374 ft | 1 kts | 249° |
| 2026-05-06 08:21 | 50.05032 | 8.59017 | 373 ft | 0 kts | 250° |
| 2026-05-06 08:22 | 50.05032 | 8.59016 | 373 ft | 0 kts | 250° |
| 2026-05-06 08:23 | 50.05032 | 8.59013 | 373 ft | 1 kts | 250° |
| 2026-05-06 08:24 | 50.05023 | 8.58978 | 374 ft | 5 kts | 251° |
| 2026-05-06 08:24 | 50.05008 | 8.58913 | 374 ft | 7 kts | 250° |
| 2026-05-06 08:24 | 50.04989 | 8.58832 | 374 ft | 7 kts | 250° |
| 2026-05-06 08:24 | 50.04969 | 8.58752 | 375 ft | 7 kts | 250° |
| 2026-05-06 08:25 | 50.04937 | 8.58686 | 374 ft | 8 kts | 203° |
| 2026-05-06 08:25 | 50.04864 | 8.58698 | 370 ft | 13 kts | 160° |
| 2026-05-06 08:25 | 50.04768 | 8.58755 | 364 ft | 13 kts | 161° |
| 2026-05-06 08:25 | 50.04674 | 8.58764 | 362 ft | 12 kts | 188° |
| 2026-05-06 08:26 | 50.04605 | 8.58736 | 364 ft | 7 kts | 207° |
| 2026-05-06 08:26 | 50.04567 | 8.58693 | 363 ft | 7 kts | 221° |
| 2026-05-06 08:26 | 50.04527 | 8.58640 | 364 ft | 7 kts | 221° |
| 2026-05-06 08:26 | 50.04496 | 8.58592 | 365 ft | 6 kts | 231° |
| 2026-05-06 08:27 | 50.04475 | 8.58538 | 367 ft | 5 kts | 248° |
| 2026-05-06 08:27 | 50.04433 | 8.58365 | 373 ft | 38 kts | 250° |
| 2026-05-06 08:27 | 50.04278 | 8.57715 | 365 ft | 89 kts | 250° |
| 2026-05-06 08:27 | 50.04004 | 8.56566 | 353 ft | 136 kts | 250° |
| 2026-05-06 08:28 | 50.03625 | 8.54975 | 383 ft | 170 kts | 249° |
| 2026-05-06 08:28 | 50.03234 | 8.53230 | 733 ft | 172 kts | 250° |
| 2026-05-06 08:28 | 50.02838 | 8.51471 | 1156 ft | 171 kts | 246° |
| 2026-05-06 08:28 | 50.02088 | 8.50126 | 1527 ft | 168 kts | 202° |
| 2026-05-06 08:29 | 50.00966 | 8.49553 | 1856 ft | 171 kts | 202° |
| 2026-05-06 08:29 | 49.99823 | 8.48927 | 2123 ft | 181 kts | 201° |
| 2026-05-06 08:29 | 49.98569 | 8.48280 | 2358 ft | 195 kts | 200° |
| 2026-05-06 08:29 | 49.97229 | 8.47614 | 2624 ft | 208 kts | 200° |
| 2026-05-06 08:30 | 49.95818 | 8.46937 | 3003 ft | 218 kts | 199° |
| 2026-05-06 08:30 | 49.94351 | 8.46253 | 3455 ft | 224 kts | 199° |
| 2026-05-06 08:30 | 49.92840 | 8.45551 | 3919 ft | 230 kts | 199° |
| 2026-05-06 08:30 | 49.91407 | 8.44463 | 4392 ft | 231 kts | 227° |
| 2026-05-06 08:31 | 49.90464 | 8.42430 | 4819 ft | 236 kts | 240° |
| 2026-05-06 08:31 | 49.89623 | 8.40212 | 5274 ft | 240 kts | 240° |
| 2026-05-06 08:31 | 49.88816 | 8.37988 | 5766 ft | 238 kts | 249° |
| 2026-05-06 08:31 | 49.88597 | 8.35465 | 6292 ft | 239 kts | 273° |
| 2026-05-06 08:32 | 49.88723 | 8.32892 | 6775 ft | 243 kts | 272° |
| 2026-05-06 08:32 | 49.88857 | 8.30279 | 7226 ft | 248 kts | 272° |
| 2026-05-06 08:32 | 49.89016 | 8.27575 | 7644 ft | 255 kts | 278° |
| 2026-05-06 08:32 | 49.89742 | 8.24994 | 8060 ft | 266 kts | 302° |
| 2026-05-06 08:33 | 49.90860 | 8.22659 | 8522 ft | 274 kts | 304° |
| 2026-05-06 08:33 | 49.92032 | 8.20268 | 9029 ft | 279 kts | 303° |
| 2026-05-06 08:33 | 49.93202 | 8.17845 | 9541 ft | 284 kts | 303° |
| 2026-05-06 08:33 | 49.94466 | 8.15460 | 10045 ft | 291 kts | 313° |
| 2026-05-06 08:34 | 49.96004 | 8.13352 | 10465 ft | 299 kts | 316° |
| 2026-05-06 08:34 | 49.99287 | 8.09055 | 11233 ft | 319 kts | 315° |
| 2026-05-06 08:34 | 50.00987 | 8.06796 | 11601 ft | 330 kts | 315° |
| 2026-05-06 08:35 | 50.02766 | 8.04418 | 11964 ft | 341 kts | 315° |
| 2026-05-06 08:35 | 50.04610 | 8.01949 | 12360 ft | 353 kts | 315° |
| 2026-05-06 08:35 | 50.06484 | 7.99440 | 12808 ft | 362 kts | 316° |
| 2026-05-06 08:35 | 50.08431 | 7.96830 | 13280 ft | 368 kts | 316° |
| 2026-05-06 08:36 | 50.10366 | 7.94235 | 13887 ft | 368 kts | 316° |
| 2026-05-06 08:36 | 50.12316 | 7.91614 | 14539 ft | 370 kts | 316° |
| 2026-05-06 08:36 | 50.14264 | 7.88988 | 15159 ft | 372 kts | 316° |
| 2026-05-06 08:36 | 50.16224 | 7.86346 | 15747 ft | 375 kts | 316° |
| 2026-05-06 08:37 | 50.18203 | 7.83676 | 16348 ft | 377 kts | 316° |
| 2026-05-06 08:37 | 50.20203 | 7.80975 | 16943 ft | 379 kts | 316° |
| 2026-05-06 08:37 | 50.22191 | 7.78289 | 17536 ft | 380 kts | 316° |
| 2026-05-06 08:37 | 50.24205 | 7.75566 | 18128 ft | 380 kts | 316° |
| 2026-05-06 08:38 | 50.26350 | 7.73204 | 18730 ft | 382 kts | 329° |
| 2026-05-06 08:38 | 50.28766 | 7.71403 | 19350 ft | 382 kts | 334° |
| 2026-05-06 08:38 | 50.31182 | 7.69808 | 19952 ft | 380 kts | 334° |
| 2026-05-06 08:38 | 50.33613 | 7.68215 | 20554 ft | 377 kts | 334° |
| 2026-05-06 08:39 | 50.36047 | 7.66587 | 20991 ft | 379 kts | 334° |
| 2026-05-06 08:39 | 50.38474 | 7.64938 | 21380 ft | 381 kts | 334° |
| 2026-05-06 08:39 | 50.40914 | 7.63267 | 21761 ft | 383 kts | 334° |
| 2026-05-06 08:39 | 50.43349 | 7.61594 | 22117 ft | 385 kts | 334° |
| 2026-05-06 08:40 | 50.45843 | 7.59878 | 22379 ft | 390 kts | 334° |
| 2026-05-06 08:40 | 50.48322 | 7.58171 | 22638 ft | 394 kts | 334° |
| 2026-05-06 08:40 | 50.50876 | 7.56411 | 22903 ft | 398 kts | 334° |
| 2026-05-06 08:40 | 50.53433 | 7.54647 | 23165 ft | 403 kts | 334° |
| 2026-05-06 08:41 | 50.55970 | 7.52816 | 23418 ft | 405 kts | 329° |
| 2026-05-06 08:41 | 50.58412 | 7.50528 | 23687 ft | 407 kts | 326° |
| 2026-05-06 08:41 | 50.60799 | 7.48062 | 23954 ft | 411 kts | 324° |
| 2026-05-06 08:41 | 50.63177 | 7.45566 | 24212 ft | 414 kts | 325° |
| 2026-05-06 08:42 | 50.65577 | 7.43065 | 24470 ft | 417 kts | 326° |
| 2026-05-06 08:42 | 50.68029 | 7.40531 | 24733 ft | 420 kts | 327° |
| 2026-05-06 08:42 | 50.70499 | 7.37988 | 24995 ft | 423 kts | 327° |
| 2026-05-06 08:42 | 50.72983 | 7.35414 | 25255 ft | 425 kts | 325° |
| 2026-05-06 08:43 | 50.75193 | 7.32292 | 25523 ft | 427 kts | 310° |
| 2026-05-06 08:43 | 50.77001 | 7.28630 | 25786 ft | 429 kts | 305° |
| 2026-05-06 08:43 | 50.78708 | 7.24707 | 26052 ft | 430 kts | 304° |
| 2026-05-06 08:43 | 50.80397 | 7.20758 | 26317 ft | 432 kts | 305° |
| 2026-05-06 08:44 | 50.82093 | 7.16845 | 26584 ft | 434 kts | 306° |
| 2026-05-06 08:44 | 50.83815 | 7.12925 | 26851 ft | 435 kts | 306° |
| 2026-05-06 08:44 | 50.85555 | 7.08993 | 27120 ft | 436 kts | 307° |
| 2026-05-06 08:44 | 50.87300 | 7.05063 | 27388 ft | 437 kts | 307° |
| 2026-05-06 08:45 | 50.89056 | 7.01109 | 27660 ft | 437 kts | 307° |
| 2026-05-06 08:45 | 50.90834 | 6.97229 | 27928 ft | 436 kts | 308° |
| 2026-05-06 08:45 | 50.92617 | 6.93268 | 28202 ft | 437 kts | 307° |
| 2026-05-06 08:45 | 50.94345 | 6.89314 | 28468 ft | 436 kts | 306° |
| 2026-05-06 08:46 | 50.96064 | 6.85365 | 28730 ft | 436 kts | 306° |
| 2026-05-06 08:46 | 50.97800 | 6.81393 | 28947 ft | 436 kts | 307° |
| 2026-05-06 08:46 | 50.99533 | 6.77442 | 29164 ft | 437 kts | 307° |
| 2026-05-06 08:46 | 51.01276 | 6.73471 | 29384 ft | 436 kts | 307° |
| 2026-05-06 08:47 | 51.03001 | 6.69544 | 29597 ft | 436 kts | 307° |
| 2026-05-06 08:47 | 51.04732 | 6.65597 | 29815 ft | 435 kts | 307° |
| 2026-05-06 08:47 | 51.06479 | 6.61608 | 30035 ft | 435 kts | 307° |
| 2026-05-06 08:47 | 51.08196 | 6.57682 | 30252 ft | 434 kts | 307° |
| 2026-05-06 08:48 | 51.09927 | 6.53717 | 30472 ft | 433 kts | 307° |
| 2026-05-06 08:48 | 51.11643 | 6.49776 | 30691 ft | 431 kts | 307° |
| 2026-05-06 08:48 | 51.13329 | 6.45892 | 30908 ft | 429 kts | 307° |
| 2026-05-06 08:48 | 51.15046 | 6.41933 | 31064 ft | 429 kts | 307° |
| 2026-05-06 08:49 | 51.16731 | 6.38044 | 31197 ft | 429 kts | 306° |
| 2026-05-06 08:49 | 51.18445 | 6.34087 | 31335 ft | 428 kts | 305° |
| 2026-05-06 08:49 | 51.20107 | 6.30183 | 31470 ft | 428 kts | 304° |
| 2026-05-06 08:49 | 51.21765 | 6.26270 | 31604 ft | 427 kts | 304° |
| 2026-05-06 08:50 | 51.23445 | 6.22324 | 31743 ft | 426 kts | 305° |
| 2026-05-06 08:50 | 51.25104 | 6.18449 | 31880 ft | 424 kts | 305° |
| 2026-05-06 08:50 | 51.26774 | 6.14554 | 32020 ft | 423 kts | 305° |
| 2026-05-06 08:50 | 51.28435 | 6.10650 | 32158 ft | 421 kts | 304° |
| 2026-05-06 08:51 | 51.30048 | 6.06749 | 32231 ft | 422 kts | 303° |
| 2026-05-06 08:51 | 51.33260 | 5.98882 | 32346 ft | 422 kts | 303° |
| 2026-05-06 08:52 | 51.36475 | 5.91011 | 32462 ft | 423 kts | 303° |
| 2026-05-06 08:52 | 51.38208 | 5.87168 | 32512 ft | 421 kts | 314° |
| 2026-05-06 08:52 | 51.40287 | 5.83881 | 32576 ft | 420 kts | 319° |
| 2026-05-06 08:53 | 51.44725 | 5.77708 | 32710 ft | 420 kts | 320° |
| 2026-05-06 08:53 | 51.49151 | 5.71533 | 32819 ft | 420 kts | 319° |
| 2026-05-06 08:54 | 51.53543 | 5.65303 | 32825 ft | 423 kts | 319° |
| 2026-05-06 08:54 | 51.57990 | 5.58959 | 32827 ft | 427 kts | 319° |
| 2026-05-06 08:55 | 51.62436 | 5.52598 | 32830 ft | 430 kts | 319° |
| 2026-05-06 08:55 | 51.66962 | 5.46106 | 32832 ft | 434 kts | 318° |
| 2026-05-06 08:56 | 51.71498 | 5.39583 | 32832 ft | 438 kts | 318° |
| 2026-05-06 08:56 | 51.76076 | 5.32970 | 32836 ft | 443 kts | 317° |
| 2026-05-06 08:57 | 51.80674 | 5.26206 | 32836 ft | 447 kts | 317° |
| 2026-05-06 08:57 | 51.85314 | 5.19421 | 32851 ft | 452 kts | 317° |
| 2026-05-06 08:58 | 51.90027 | 5.12552 | 32853 ft | 457 kts | 317° |
| 2026-05-06 08:58 | 51.94795 | 5.05594 | 32863 ft | 462 kts | 317° |
| 2026-05-06 08:59 | 51.99617 | 4.98535 | 32864 ft | 467 kts | 317° |
| 2026-05-06 08:59 | 52.04465 | 4.91419 | 32866 ft | 472 kts | 317° |
| 2026-05-06 09:00 | 52.09387 | 4.84173 | 32864 ft | 477 kts | 317° |
| 2026-05-06 09:00 | 52.14342 | 4.76852 | 32861 ft | 483 kts | 317° |
| 2026-05-06 09:01 | 52.19362 | 4.69412 | 33057 ft | 483 kts | 317° |
| 2026-05-06 09:01 | 52.21859 | 4.65703 | 33265 ft | 481 kts | 317° |
| 2026-05-06 09:01 | 52.24310 | 4.62058 | 33469 ft | 478 kts | 316° |
| 2026-05-06 09:01 | 52.26772 | 4.58390 | 33674 ft | 476 kts | 317° |
| 2026-05-06 09:02 | 52.29210 | 4.54753 | 33832 ft | 474 kts | 316° |
| 2026-05-06 09:02 | 52.34122 | 4.47406 | 33876 ft | 477 kts | 316° |
| 2026-05-06 09:03 | 52.39038 | 4.40032 | 33886 ft | 481 kts | 316° |
| 2026-05-06 09:03 | 52.43991 | 4.32563 | 33895 ft | 484 kts | 315° |
| 2026-05-06 09:04 | 52.48938 | 4.24959 | 33900 ft | 488 kts | 315° |
| 2026-05-06 09:04 | 52.53938 | 4.17314 | 33903 ft | 492 kts | 315° |
| 2026-05-06 09:05 | 52.58965 | 4.09658 | 33903 ft | 493 kts | 315° |
| 2026-05-06 09:05 | 52.64012 | 4.01964 | 33908 ft | 492 kts | 315° |
| 2026-05-06 09:06 | 52.69042 | 3.94271 | 33911 ft | 490 kts | 315° |
| 2026-05-06 09:06 | 52.74048 | 3.86591 | 33912 ft | 490 kts | 315° |
| 2026-05-06 09:07 | 52.79040 | 3.78904 | 33919 ft | 490 kts | 315° |
| 2026-05-06 09:07 | 52.84026 | 3.71201 | 33917 ft | 490 kts | 315° |
| 2026-05-06 09:08 | 52.88994 | 3.63502 | 33925 ft | 489 kts | 315° |
| 2026-05-06 09:08 | 52.93985 | 3.55741 | 33923 ft | 489 kts | 315° |
| 2026-05-06 09:09 | 52.98944 | 3.48005 | 33927 ft | 489 kts | 315° |
| 2026-05-06 09:09 | 53.03888 | 3.40267 | 33938 ft | 489 kts | 315° |
| 2026-05-06 09:10 | 53.08637 | 3.32120 | 33932 ft | 485 kts | 302° |
| 2026-05-06 09:10 | 53.10279 | 3.27271 | 33946 ft | 481 kts | 290° |
| 2026-05-06 09:10 | 53.11408 | 3.22014 | 33941 ft | 481 kts | 284° |
| 2026-05-06 09:11 | 53.13082 | 3.11287 | 33942 ft | 481 kts | 282° |
| 2026-05-06 09:11 | 53.14654 | 3.00438 | 33946 ft | 479 kts | 282° |
| 2026-05-06 09:12 | 53.16249 | 2.89655 | 33935 ft | 477 kts | 282° |
| 2026-05-06 09:12 | 53.17850 | 2.78929 | 33945 ft | 477 kts | 282° |
| 2026-05-06 09:13 | 53.19448 | 2.68193 | 33957 ft | 478 kts | 283° |
| 2026-05-06 09:13 | 53.21034 | 2.57472 | 33953 ft | 478 kts | 283° |
| 2026-05-06 09:14 | 53.22623 | 2.46663 | 33941 ft | 477 kts | 283° |
| 2026-05-06 09:14 | 53.24195 | 2.35890 | 33951 ft | 476 kts | 283° |
| 2026-05-06 09:15 | 53.25705 | 2.25156 | 33958 ft | 475 kts | 281° |
| 2026-05-06 09:15 | 53.27210 | 2.14352 | 33961 ft | 475 kts | 282° |
| 2026-05-06 09:16 | 53.28727 | 2.03617 | 33953 ft | 475 kts | 282° |
| 2026-05-06 09:16 | 53.30250 | 1.92871 | 33953 ft | 474 kts | 282° |
| 2026-05-06 09:17 | 53.31760 | 1.82155 | 33960 ft | 474 kts | 282° |
| 2026-05-06 09:17 | 53.33262 | 1.71420 | 33958 ft | 474 kts | 282° |
| 2026-05-06 09:18 | 53.34759 | 1.60642 | 33953 ft | 474 kts | 282° |
| 2026-05-06 09:18 | 53.36239 | 1.49912 | 33959 ft | 474 kts | 282° |
| 2026-05-06 09:19 | 53.37717 | 1.39120 | 33967 ft | 473 kts | 282° |
| 2026-05-06 09:19 | 53.39156 | 1.28346 | 33967 ft | 473 kts | 281° |
| 2026-05-06 09:20 | 53.40541 | 1.17644 | 33975 ft | 473 kts | 281° |
| 2026-05-06 09:20 | 53.41961 | 1.06869 | 33981 ft | 473 kts | 281° |
| 2026-05-06 09:21 | 53.43388 | 0.96099 | 33984 ft | 472 kts | 281° |
| 2026-05-06 09:21 | 53.44809 | 0.85330 | 33985 ft | 472 kts | 281° |
| 2026-05-06 09:22 | 53.46218 | 0.74574 | 33987 ft | 472 kts | 281° |
| 2026-05-06 09:22 | 53.47622 | 0.63782 | 33997 ft | 471 kts | 281° |
| 2026-05-06 09:23 | 53.49007 | 0.53042 | 34002 ft | 471 kts | 281° |
| 2026-05-06 09:23 | 53.50386 | 0.42272 | 34006 ft | 471 kts | 281° |
| 2026-05-06 09:24 | 53.51753 | 0.31454 | 34006 ft | 471 kts | 280° |
| 2026-05-06 09:24 | 53.53048 | 0.20689 | 34008 ft | 470 kts | 280° |
| 2026-05-06 09:25 | 53.54362 | 0.09920 | 34016 ft | 469 kts | 280° |
| 2026-05-06 09:25 | 53.55682 | -0.00782 | 34018 ft | 469 kts | 280° |
| 2026-05-06 09:26 | 53.57003 | -0.11523 | 34018 ft | 469 kts | 280° |
| 2026-05-06 09:26 | 53.58322 | -0.22317 | 34019 ft | 470 kts | 280° |
| 2026-05-06 09:27 | 53.59626 | -0.33072 | 34025 ft | 470 kts | 281° |
| 2026-05-06 09:27 | 53.60922 | -0.43850 | 34031 ft | 469 kts | 280° |
| 2026-05-06 09:28 | 53.62204 | -0.54593 | 34030 ft | 468 kts | 280° |
| 2026-05-06 09:28 | 53.63482 | -0.65399 | 34027 ft | 469 kts | 279° |
| 2026-05-06 09:29 | 53.64697 | -0.76202 | 34032 ft | 469 kts | 279° |
| 2026-05-06 09:29 | 53.65911 | -0.87015 | 34037 ft | 468 kts | 279° |
| 2026-05-06 09:30 | 53.67142 | -0.97803 | 34042 ft | 467 kts | 279° |
| 2026-05-06 09:30 | 53.68370 | -1.08547 | 34038 ft | 467 kts | 279° |
| 2026-05-06 09:31 | 53.69596 | -1.19354 | 34030 ft | 467 kts | 279° |
| 2026-05-06 09:31 | 53.70802 | -1.30075 | 34026 ft | 468 kts | 279° |
| 2026-05-06 09:32 | 53.72007 | -1.40874 | 34024 ft | 467 kts | 279° |
| 2026-05-06 09:32 | 53.73203 | -1.51687 | 34025 ft | 467 kts | 279° |
| 2026-05-06 09:33 | 53.74390 | -1.62516 | 34023 ft | 467 kts | 279° |
| 2026-05-06 09:33 | 53.75534 | -1.73371 | 34022 ft | 468 kts | 278° |
| 2026-05-06 09:34 | 53.76644 | -1.84178 | 34018 ft | 466 kts | 278° |
| 2026-05-06 09:34 | 53.77779 | -1.94982 | 34019 ft | 466 kts | 279° |
| 2026-05-06 09:35 | 53.78917 | -2.05783 | 34016 ft | 466 kts | 279° |
| 2026-05-06 09:35 | 53.80045 | -2.16545 | 34010 ft | 466 kts | 279° |
| 2026-05-06 09:36 | 53.81175 | -2.27423 | 34005 ft | 466 kts | 279° |
| 2026-05-06 09:36 | 53.82290 | -2.38252 | 34013 ft | 466 kts | 279° |
| 2026-05-06 09:37 | 53.83392 | -2.49058 | 34031 ft | 467 kts | 279° |
| 2026-05-06 09:37 | 53.84488 | -2.59912 | 34034 ft | 466 kts | 279° |
| 2026-05-06 09:38 | 53.85552 | -2.70732 | 34045 ft | 466 kts | 278° |
| 2026-05-06 09:38 | 53.86572 | -2.81635 | 34051 ft | 465 kts | 278° |
| 2026-05-06 09:39 | 53.87606 | -2.92436 | 34055 ft | 465 kts | 278° |
| 2026-05-06 09:39 | 53.88655 | -3.03286 | 34054 ft | 465 kts | 278° |
| 2026-05-06 09:40 | 53.89701 | -3.14161 | 34054 ft | 465 kts | 278° |
| 2026-05-06 09:40 | 53.91250 | -3.30454 | 34052 ft | 465 kts | 278° |
| 2026-05-06 09:41 | 53.92267 | -3.41282 | 34048 ft | 465 kts | 278° |
| 2026-05-06 09:41 | 53.93350 | -3.52160 | 34038 ft | 465 kts | 284° |
| 2026-05-06 09:42 | 53.95381 | -3.62657 | 34039 ft | 468 kts | 289° |
| 2026-05-06 09:42 | 53.97536 | -3.73084 | 34037 ft | 468 kts | 287° |
| 2026-05-06 09:43 | 53.99601 | -3.83663 | 34035 ft | 467 kts | 287° |
| 2026-05-06 09:43 | 54.01624 | -3.94142 | 34032 ft | 466 kts | 287° |
| 2026-05-06 09:44 | 54.03655 | -4.04714 | 34031 ft | 468 kts | 287° |
| 2026-05-06 09:44 | 54.05673 | -4.15264 | 34032 ft | 468 kts | 287° |
| 2026-05-06 09:45 | 54.07675 | -4.25783 | 34035 ft | 467 kts | 287° |
| 2026-05-06 09:45 | 54.09677 | -4.36362 | 34033 ft | 467 kts | 287° |
| 2026-05-06 09:46 | 54.11668 | -4.46956 | 34037 ft | 468 kts | 287° |
| 2026-05-06 09:46 | 54.13657 | -4.57601 | 34032 ft | 469 kts | 287° |
| 2026-05-06 09:47 | 54.15637 | -4.68283 | 34039 ft | 469 kts | 286° |
| 2026-05-06 09:47 | 54.17547 | -4.78959 | 34043 ft | 469 kts | 287° |
| 2026-05-06 09:48 | 54.19478 | -4.89646 | 34037 ft | 469 kts | 287° |
| 2026-05-06 09:48 | 54.21419 | -5.00311 | 34036 ft | 469 kts | 287° |
| 2026-05-06 09:49 | 54.23352 | -5.10942 | 34035 ft | 469 kts | 287° |
| 2026-05-06 09:49 | 54.25274 | -5.21570 | 34036 ft | 469 kts | 287° |
| 2026-05-06 09:50 | 54.27203 | -5.32305 | 34035 ft | 468 kts | 287° |
| 2026-05-06 09:50 | 54.29105 | -5.42946 | 34035 ft | 468 kts | 287° |
| 2026-05-06 09:51 | 54.31002 | -5.53626 | 34035 ft | 469 kts | 287° |
| 2026-05-06 09:51 | 54.32893 | -5.64333 | 34034 ft | 469 kts | 287° |
| 2026-05-06 09:52 | 54.34740 | -5.75133 | 34034 ft | 468 kts | 286° |
| 2026-05-06 09:52 | 54.36562 | -5.85853 | 34032 ft | 468 kts | 287° |
| 2026-05-06 09:53 | 54.38404 | -5.96559 | 34029 ft | 467 kts | 287° |
| 2026-05-06 09:53 | 54.40254 | -6.07309 | 34030 ft | 467 kts | 287° |
| 2026-05-06 09:54 | 54.42091 | -6.18027 | 34031 ft | 468 kts | 287° |
| 2026-05-06 09:54 | 54.43919 | -6.28758 | 34030 ft | 467 kts | 287° |
| 2026-05-06 09:55 | 54.45746 | -6.39550 | 34029 ft | 467 kts | 287° |
| 2026-05-06 09:55 | 54.47547 | -6.50248 | 34026 ft | 467 kts | 287° |
| 2026-05-06 09:56 | 54.49347 | -6.61009 | 34025 ft | 467 kts | 287° |
| 2026-05-06 09:56 | 54.51121 | -6.71845 | 34023 ft | 467 kts | 286° |
| 2026-05-06 09:57 | 54.52835 | -6.82587 | 34017 ft | 466 kts | 287° |
| 2026-05-06 09:57 | 54.54582 | -6.93372 | 34017 ft | 466 kts | 287° |
| 2026-05-06 09:58 | 54.56327 | -7.04105 | 34006 ft | 465 kts | 287° |
| 2026-05-06 09:58 | 54.58073 | -7.14882 | 33999 ft | 465 kts | 287° |
| 2026-05-06 09:59 | 54.59813 | -7.25683 | 33999 ft | 464 kts | 287° |
| 2026-05-06 09:59 | 54.61528 | -7.36398 | 33997 ft | 465 kts | 287° |
| 2026-05-06 10:00 | 54.63254 | -7.47246 | 33993 ft | 466 kts | 287° |
| 2026-05-06 10:00 | 54.64955 | -7.58018 | 33990 ft | 465 kts | 288° |
| 2026-05-06 10:01 | 54.66647 | -7.68849 | 33998 ft | 464 kts | 287° |
| 2026-05-06 10:01 | 54.68277 | -7.79710 | 33999 ft | 465 kts | 287° |
| 2026-05-06 10:02 | 54.69922 | -7.90537 | 33995 ft | 466 kts | 287° |
| 2026-05-06 10:02 | 54.71577 | -8.01352 | 33986 ft | 464 kts | 287° |
| 2026-05-06 10:03 | 54.73229 | -8.12162 | 33990 ft | 462 kts | 287° |
| 2026-05-06 10:03 | 54.74874 | -8.22990 | 33999 ft | 462 kts | 287° |
| 2026-05-06 10:04 | 54.76495 | -8.33734 | 34001 ft | 462 kts | 287° |
| 2026-05-06 10:04 | 54.78122 | -8.44587 | 34007 ft | 462 kts | 288° |
| 2026-05-06 10:05 | 54.79724 | -8.55350 | 34014 ft | 461 kts | 288° |
| 2026-05-06 10:05 | 54.81319 | -8.66135 | 34021 ft | 461 kts | 287° |
| 2026-05-06 10:06 | 54.82854 | -8.76986 | 34024 ft | 460 kts | 287° |
| 2026-05-06 10:06 | 54.84394 | -8.87829 | 34034 ft | 461 kts | 287° |
| 2026-05-06 10:07 | 54.85950 | -8.98655 | 34031 ft | 461 kts | 287° |
| 2026-05-06 10:07 | 54.87505 | -9.09486 | 34028 ft | 460 kts | 287° |
| 2026-05-06 10:08 | 54.89053 | -9.20320 | 34029 ft | 460 kts | 287° |
| 2026-05-06 10:08 | 54.90584 | -9.31112 | 34029 ft | 458 kts | 287° |
| 2026-05-06 10:09 | 54.92102 | -9.41889 | 34033 ft | 458 kts | 288° |
| 2026-05-06 10:09 | 54.93605 | -9.52628 | 34032 ft | 457 kts | 287° |
| 2026-05-06 10:10 | 54.95105 | -9.63427 | 34029 ft | 457 kts | 287° |
| 2026-05-06 10:10 | 54.96556 | -9.74253 | 34029 ft | 458 kts | 286° |
| 2026-05-06 10:11 | 54.97992 | -9.85115 | 34029 ft | 458 kts | 287° |
| 2026-05-06 10:11 | 54.99435 | -9.95856 | 34030 ft | 456 kts | 287° |
| 2026-05-06 10:12 | 55.01212 | -10.06445 | 34030 ft | 451 kts | 295° |
| 2026-05-06 10:12 | 55.03593 | -10.16511 | 34028 ft | 451 kts | 296° |
| 2026-05-06 10:13 | 55.05984 | -10.26723 | 34029 ft | 452 kts | 295° |
| 2026-05-06 10:13 | 55.08299 | -10.36927 | 34028 ft | 450 kts | 295° |
| 2026-05-06 10:14 | 55.10583 | -10.47158 | 34030 ft | 450 kts | 295° |
| 2026-05-06 10:14 | 55.12840 | -10.57352 | 34028 ft | 451 kts | 295° |
| 2026-05-06 10:15 | 55.15096 | -10.67615 | 34028 ft | 450 kts | 294° |
| 2026-05-06 10:15 | 55.17273 | -10.77834 | 34026 ft | 449 kts | 294° |
| 2026-05-06 10:16 | 55.19478 | -10.88111 | 34025 ft | 448 kts | 294° |
| 2026-05-06 10:16 | 55.21681 | -10.98304 | 34022 ft | 447 kts | 294° |
| 2026-05-06 10:17 | 55.23886 | -11.08517 | 34019 ft | 447 kts | 294° |
| 2026-05-06 10:17 | 55.26087 | -11.18754 | 34020 ft | 448 kts | 294° |
| 2026-05-06 10:18 | 55.28278 | -11.28992 | 34018 ft | 448 kts | 294° |
| 2026-05-06 10:18 | 55.30465 | -11.39261 | 34016 ft | 446 kts | 294° |
| 2026-05-06 10:19 | 55.32624 | -11.49455 | 34019 ft | 446 kts | 294° |
| 2026-05-06 10:19 | 55.34788 | -11.59721 | 34017 ft | 446 kts | 294° |
| 2026-05-06 10:20 | 55.36921 | -11.69970 | 34015 ft | 446 kts | 292° |
| 2026-05-06 10:20 | 55.39007 | -11.80273 | 34014 ft | 446 kts | 293° |
| 2026-05-06 10:21 | 55.41119 | -11.90591 | 34015 ft | 444 kts | 293° |
| 2026-05-06 10:21 | 55.43219 | -12.00796 | 34007 ft | 444 kts | 293° |
| 2026-05-06 10:22 | 55.45332 | -12.11084 | 34026 ft | 445 kts | 293° |
| 2026-05-06 10:22 | 55.47429 | -12.21340 | 34026 ft | 445 kts | 293° |
| 2026-05-06 10:23 | 55.49520 | -12.31628 | 34008 ft | 444 kts | 293° |
| 2026-05-06 10:23 | 55.51606 | -12.41934 | 34002 ft | 444 kts | 293° |
| 2026-05-06 10:24 | 55.53680 | -12.52239 | 34002 ft | 444 kts | 293° |
| 2026-05-06 10:24 | 55.55736 | -12.62506 | 33996 ft | 444 kts | 293° |
| 2026-05-06 10:25 | 55.57764 | -12.72870 | 33997 ft | 443 kts | 291° |
| 2026-05-06 10:25 | 55.59750 | -12.83173 | 33993 ft | 443 kts | 292° |
| 2026-05-06 10:26 | 55.61770 | -12.93530 | 33995 ft | 443 kts | 292° |
| 2026-05-06 10:26 | 55.63781 | -13.03815 | 33993 ft | 441 kts | 292° |
| 2026-05-06 10:27 | 55.65788 | -13.14114 | 33991 ft | 441 kts | 292° |
| 2026-05-06 10:27 | 55.67781 | -13.24391 | 33991 ft | 440 kts | 292° |
| 2026-05-06 10:28 | 55.69768 | -13.34684 | 33989 ft | 441 kts | 292° |
| 2026-05-06 10:28 | 55.71752 | -13.45023 | 33988 ft | 441 kts | 292° |
| 2026-05-06 10:29 | 55.73716 | -13.55308 | 33986 ft | 440 kts | 292° |
| 2026-05-06 10:29 | 55.75682 | -13.65670 | 33984 ft | 439 kts | 291° |
| 2026-05-06 10:30 | 55.77581 | -13.76022 | 33982 ft | 440 kts | 290° |
| 2026-05-06 10:30 | 55.79480 | -13.86365 | 33977 ft | 439 kts | 291° |
| 2026-05-06 10:31 | 55.81399 | -13.96717 | 33973 ft | 439 kts | 291° |
| 2026-05-06 10:31 | 55.83320 | -14.07078 | 33976 ft | 439 kts | 291° |
| 2026-05-06 10:32 | 55.85233 | -14.17435 | 33974 ft | 438 kts | 291° |
| 2026-05-06 10:32 | 55.87124 | -14.27732 | 33973 ft | 437 kts | 291° |
| 2026-05-06 10:33 | 55.89017 | -14.38092 | 33973 ft | 437 kts | 291° |
| 2026-05-06 10:33 | 55.90888 | -14.48387 | 33972 ft | 437 kts | 291° |
| 2026-05-06 10:34 | 55.92761 | -14.58754 | 33968 ft | 435 kts | 291° |
| 2026-05-06 10:34 | 55.94600 | -14.69051 | 33973 ft | 436 kts | 289° |
| 2026-05-06 10:35 | 55.96399 | -14.79473 | 33970 ft | 438 kts | 289° |
| 2026-05-06 10:35 | 55.98214 | -14.89869 | 33971 ft | 437 kts | 290° |
| 2026-05-06 10:36 | 56.00018 | -15.00295 | 33967 ft | 435 kts | 288° |
| 2026-05-06 10:36 | 56.01402 | -15.10874 | 33966 ft | 437 kts | 285° |
| 2026-05-06 10:37 | 56.02654 | -15.21569 | 33965 ft | 437 kts | 285° |
| 2026-05-06 10:37 | 56.03912 | -15.32212 | 33964 ft | 437 kts | 285° |
| 2026-05-06 10:38 | 56.05176 | -15.42860 | 33964 ft | 436 kts | 285° |
| 2026-05-06 10:38 | 56.06438 | -15.53519 | 33962 ft | 437 kts | 285° |
| 2026-05-06 10:39 | 56.07693 | -15.64180 | 33961 ft | 436 kts | 285° |
| 2026-05-06 10:39 | 56.08898 | -15.74901 | 33959 ft | 437 kts | 283° |
| 2026-05-06 10:40 | 56.10094 | -15.85635 | 33955 ft | 438 kts | 284° |
| 2026-05-06 10:40 | 56.11301 | -15.96328 | 33945 ft | 437 kts | 284° |
| 2026-05-06 10:41 | 56.12514 | -16.07037 | 33942 ft | 436 kts | 284° |
| 2026-05-06 10:41 | 56.13718 | -16.17705 | 33942 ft | 437 kts | 284° |
| 2026-05-06 10:42 | 56.14923 | -16.28458 | 33942 ft | 437 kts | 284° |
| 2026-05-06 10:42 | 56.16114 | -16.39190 | 33937 ft | 436 kts | 284° |
| 2026-05-06 10:43 | 56.17291 | -16.49866 | 33939 ft | 437 kts | 284° |
| 2026-05-06 10:44 | 56.19043 | -16.65945 | 33939 ft | 436 kts | 283° |
| 2026-05-06 10:44 | 56.20151 | -16.76733 | 33933 ft | 437 kts | 282° |
| 2026-05-06 10:45 | 56.21263 | -16.87530 | 33936 ft | 438 kts | 283° |
| 2026-05-06 10:45 | 56.22383 | -16.98230 | 33934 ft | 437 kts | 283° |
| 2026-05-06 10:46 | 56.23512 | -17.09010 | 33936 ft | 437 kts | 283° |
| 2026-05-06 10:46 | 56.24633 | -17.19782 | 33939 ft | 436 kts | 283° |
| 2026-05-06 10:47 | 56.25746 | -17.30567 | 33944 ft | 437 kts | 283° |
| 2026-05-06 10:47 | 56.26848 | -17.41337 | 33942 ft | 436 kts | 282° |
| 2026-05-06 10:48 | 56.27944 | -17.52156 | 33943 ft | 437 kts | 282° |
| 2026-05-06 10:48 | 56.29022 | -17.62887 | 33945 ft | 437 kts | 283° |
| 2026-05-06 10:49 | 56.30063 | -17.73735 | 33945 ft | 439 kts | 281° |
| 2026-05-06 10:49 | 56.31085 | -17.84632 | 33943 ft | 438 kts | 281° |
| 2026-05-06 10:50 | 56.32127 | -17.95507 | 33940 ft | 438 kts | 281° |
| 2026-05-06 10:50 | 56.33167 | -18.06308 | 33942 ft | 438 kts | 281° |
| 2026-05-06 10:51 | 56.34202 | -18.17132 | 33939 ft | 438 kts | 281° |
| 2026-05-06 10:51 | 56.35235 | -18.28030 | 33934 ft | 437 kts | 281° |
| 2026-05-06 10:52 | 56.36248 | -18.38810 | 33935 ft | 437 kts | 281° |
| 2026-05-06 10:52 | 56.37260 | -18.49688 | 33937 ft | 438 kts | 281° |
| 2026-05-06 10:53 | 56.38255 | -18.60494 | 33932 ft | 437 kts | 281° |
| 2026-05-06 10:53 | 56.39223 | -18.71362 | 33933 ft | 439 kts | 280° |
| 2026-05-06 10:54 | 56.40150 | -18.82277 | 33928 ft | 439 kts | 280° |
| 2026-05-06 10:54 | 56.41098 | -18.93173 | 33922 ft | 439 kts | 280° |
| 2026-05-06 10:55 | 56.42055 | -19.04087 | 33915 ft | 438 kts | 280° |
| 2026-05-06 10:55 | 56.43006 | -19.14979 | 33926 ft | 439 kts | 280° |
| 2026-05-06 10:56 | 56.43956 | -19.25950 | 33925 ft | 440 kts | 280° |
| 2026-05-06 10:56 | 56.44893 | -19.36882 | 33929 ft | 440 kts | 280° |
| 2026-05-06 10:57 | 56.45822 | -19.47858 | 33924 ft | 440 kts | 280° |
| 2026-05-06 10:57 | 56.46740 | -19.58810 | 33922 ft | 440 kts | 280° |
| 2026-05-06 10:58 | 56.47638 | -19.69807 | 33927 ft | 441 kts | 279° |
| 2026-05-06 10:58 | 56.48481 | -19.80838 | 33925 ft | 441 kts | 279° |
| 2026-05-06 10:59 | 56.49346 | -19.91879 | 33927 ft | 442 kts | 279° |
| 2026-05-06 10:59 | 56.50290 | -20.02903 | 33924 ft | 441 kts | 283° |
| 2026-05-06 11:00 | 56.51833 | -20.13668 | 33928 ft | 441 kts | 285° |
| 2026-05-06 11:00 | 56.53445 | -20.24388 | 33928 ft | 441 kts | 285° |
| 2026-05-06 11:01 | 56.55014 | -20.35211 | 33929 ft | 440 kts | 285° |
| 2026-05-06 11:01 | 56.56544 | -20.45989 | 33933 ft | 442 kts | 284° |
| 2026-05-06 11:02 | 56.58062 | -20.56818 | 33930 ft | 441 kts | 284° |
| 2026-05-06 11:02 | 56.59557 | -20.67591 | 33930 ft | 441 kts | 283° |
| 2026-05-06 11:03 | 56.60996 | -20.78469 | 33933 ft | 441 kts | 283° |
| 2026-05-06 11:03 | 56.62445 | -20.89304 | 33932 ft | 443 kts | 283° |
| 2026-05-06 11:04 | 56.63921 | -21.00239 | 33931 ft | 443 kts | 284° |
| 2026-05-06 11:04 | 56.65395 | -21.11168 | 33935 ft | 442 kts | 284° |
| 2026-05-06 11:05 | 56.66850 | -21.22017 | 33942 ft | 443 kts | 283° |
| 2026-05-06 11:05 | 56.68302 | -21.32914 | 33951 ft | 443 kts | 283° |
| 2026-05-06 11:06 | 56.69751 | -21.43871 | 33953 ft | 443 kts | 283° |
| 2026-05-06 11:06 | 56.71182 | -21.54778 | 33958 ft | 444 kts | 283° |
| 2026-05-06 11:07 | 56.72620 | -21.65814 | 33957 ft | 444 kts | 282° |
| 2026-05-06 11:07 | 56.73982 | -21.76788 | 33955 ft | 444 kts | 282° |
| 2026-05-06 11:08 | 56.75347 | -21.87762 | 33952 ft | 444 kts | 282° |
| 2026-05-06 11:08 | 56.76726 | -21.98706 | 33948 ft | 443 kts | 282° |
| 2026-05-06 11:09 | 56.78117 | -22.09742 | 33952 ft | 444 kts | 282° |
| 2026-05-06 11:09 | 56.79493 | -22.20723 | 33960 ft | 444 kts | 282° |
| 2026-05-06 11:10 | 56.80864 | -22.31737 | 33957 ft | 444 kts | 282° |
| 2026-05-06 11:10 | 56.82232 | -22.42820 | 33961 ft | 444 kts | 282° |
| 2026-05-06 11:11 | 56.83579 | -22.53818 | 33962 ft | 444 kts | 282° |
| 2026-05-06 11:11 | 56.84920 | -22.64859 | 33980 ft | 445 kts | 282° |
| 2026-05-06 11:12 | 56.86210 | -22.75977 | 33979 ft | 445 kts | 281° |
| 2026-05-06 11:12 | 56.87485 | -22.87028 | 33983 ft | 446 kts | 281° |
| 2026-05-06 11:13 | 56.88796 | -22.98215 | 33990 ft | 447 kts | 281° |
| 2026-05-06 11:13 | 56.90101 | -23.09345 | 33991 ft | 446 kts | 281° |
| 2026-05-06 11:14 | 56.91396 | -23.20454 | 33995 ft | 446 kts | 281° |
| 2026-05-06 11:14 | 56.92683 | -23.31577 | 33999 ft | 446 kts | 281° |
| 2026-05-06 11:15 | 56.93973 | -23.42819 | 34007 ft | 447 kts | 281° |
| 2026-05-06 11:15 | 56.95247 | -23.54019 | 34015 ft | 447 kts | 281° |
| 2026-05-06 11:16 | 56.96510 | -23.65213 | 34013 ft | 446 kts | 280° |
| 2026-05-06 11:16 | 56.97709 | -23.76418 | 34014 ft | 447 kts | 279° |
| 2026-05-06 11:17 | 56.98917 | -23.87719 | 34015 ft | 449 kts | 280° |
| 2026-05-06 11:17 | 57.00134 | -23.98934 | 34006 ft | 449 kts | 280° |
| 2026-05-06 11:18 | 57.01361 | -24.10234 | 34014 ft | 450 kts | 280° |
| 2026-05-06 11:18 | 57.02578 | -24.21514 | 34014 ft | 450 kts | 280° |
| 2026-05-06 11:19 | 57.03788 | -24.32829 | 34019 ft | 449 kts | 280° |
| 2026-05-06 11:19 | 57.04987 | -24.44134 | 34021 ft | 449 kts | 280° |
| 2026-05-06 11:20 | 57.06179 | -24.55490 | 34030 ft | 451 kts | 280° |
| 2026-05-06 11:20 | 57.07354 | -24.66794 | 34036 ft | 451 kts | 279° |
| 2026-05-06 11:21 | 57.08475 | -24.78254 | 34041 ft | 451 kts | 279° |
| 2026-05-06 11:21 | 57.09598 | -24.89641 | 34036 ft | 452 kts | 279° |
| 2026-05-06 11:22 | 57.10742 | -25.01090 | 34026 ft | 452 kts | 279° |
| 2026-05-06 11:22 | 57.11869 | -25.12395 | 34031 ft | 451 kts | 279° |
| 2026-05-06 11:23 | 57.13006 | -25.23869 | 34040 ft | 452 kts | 279° |
| 2026-05-06 11:23 | 57.14129 | -25.35305 | 34043 ft | 454 kts | 279° |
| 2026-05-06 11:24 | 57.15248 | -25.46809 | 34056 ft | 455 kts | 279° |
| 2026-05-06 11:24 | 57.16358 | -25.58327 | 34059 ft | 454 kts | 279° |
| 2026-05-06 11:25 | 57.17447 | -25.69887 | 34066 ft | 456 kts | 278° |
| 2026-05-06 11:25 | 57.18476 | -25.81473 | 34068 ft | 455 kts | 278° |
| 2026-05-06 11:26 | 57.19526 | -25.93055 | 34069 ft | 456 kts | 278° |
| 2026-05-06 11:26 | 57.20586 | -26.04612 | 34072 ft | 457 kts | 278° |
| 2026-05-06 11:27 | 57.21643 | -26.16188 | 34074 ft | 457 kts | 278° |
| 2026-05-06 11:27 | 57.22702 | -26.27900 | 34078 ft | 459 kts | 278° |
| 2026-05-06 11:28 | 57.23742 | -26.39522 | 34078 ft | 460 kts | 278° |
| 2026-05-06 11:28 | 57.24783 | -26.51273 | 34084 ft | 459 kts | 278° |
| 2026-05-06 11:29 | 57.25807 | -26.62974 | 34089 ft | 460 kts | 278° |
| 2026-05-06 11:29 | 57.26777 | -26.74657 | 34089 ft | 460 kts | 277° |
| 2026-05-06 11:30 | 57.27729 | -26.86409 | 34093 ft | 463 kts | 277° |
| 2026-05-06 11:30 | 57.28710 | -26.98224 | 34097 ft | 462 kts | 277° |
| 2026-05-06 11:31 | 57.29695 | -27.10056 | 34096 ft | 463 kts | 277° |
| 2026-05-06 11:31 | 57.30671 | -27.21879 | 34094 ft | 464 kts | 277° |
| 2026-05-06 11:32 | 57.31639 | -27.33736 | 34101 ft | 464 kts | 277° |
| 2026-05-06 11:32 | 57.32598 | -27.45613 | 34102 ft | 465 kts | 277° |
| 2026-05-06 11:33 | 57.33551 | -27.57574 | 34107 ft | 468 kts | 277° |
| 2026-05-06 11:33 | 57.34486 | -27.69593 | 34111 ft | 467 kts | 276° |
| 2026-05-06 11:34 | 57.35348 | -27.81529 | 34110 ft | 467 kts | 276° |
| 2026-05-06 11:34 | 57.36234 | -27.93497 | 34114 ft | 469 kts | 276° |
| 2026-05-06 11:35 | 57.37142 | -28.05598 | 34117 ft | 469 kts | 276° |
| 2026-05-06 11:35 | 57.38041 | -28.17649 | 34123 ft | 470 kts | 276° |
| 2026-05-06 11:36 | 57.38926 | -28.29638 | 34122 ft | 471 kts | 276° |
| 2026-05-06 11:36 | 57.39811 | -28.41811 | 34126 ft | 473 kts | 276° |
| 2026-05-06 11:37 | 57.40679 | -28.53910 | 34126 ft | 473 kts | 276° |
| 2026-05-06 11:37 | 57.41544 | -28.66126 | 34124 ft | 473 kts | 275° |
| 2026-05-06 11:38 | 57.42334 | -28.78313 | 34129 ft | 474 kts | 275° |
| 2026-05-06 11:38 | 57.43126 | -28.90459 | 34125 ft | 474 kts | 275° |
| 2026-05-06 11:39 | 57.43943 | -29.02705 | 34127 ft | 476 kts | 275° |
| 2026-05-06 11:39 | 57.44757 | -29.14913 | 34131 ft | 477 kts | 275° |
| 2026-05-06 11:40 | 57.45563 | -29.27170 | 34127 ft | 476 kts | 275° |
| 2026-05-06 11:40 | 57.46365 | -29.39547 | 34138 ft | 477 kts | 276° |
| 2026-05-06 11:41 | 57.47145 | -29.51787 | 34140 ft | 477 kts | 276° |
| 2026-05-06 11:41 | 57.47918 | -29.64090 | 34137 ft | 478 kts | 276° |
| 2026-05-06 11:42 | 57.48634 | -29.76472 | 34143 ft | 480 kts | 274° |
| 2026-05-06 11:42 | 57.49338 | -29.88885 | 34146 ft | 481 kts | 275° |
| 2026-05-06 11:43 | 57.50080 | -30.01286 | 34139 ft | 482 kts | 278° |
| 2026-05-06 11:43 | 57.51684 | -30.13469 | 34147 ft | 482 kts | 285° |
| 2026-05-06 11:44 | 57.54449 | -30.31521 | 34150 ft | 482 kts | 284° |
| 2026-05-06 11:44 | 57.56198 | -30.43692 | 34151 ft | 481 kts | 284° |
| 2026-05-06 11:45 | 57.57889 | -30.55758 | 34157 ft | 482 kts | 284° |
| 2026-05-06 11:45 | 57.59576 | -30.67959 | 34159 ft | 482 kts | 283° |
| 2026-05-06 11:46 | 57.61182 | -30.80128 | 34177 ft | 481 kts | 283° |
| 2026-05-06 11:46 | 57.62804 | -30.92295 | 34176 ft | 480 kts | 283° |
| 2026-05-06 11:47 | 57.64435 | -31.04418 | 34173 ft | 482 kts | 283° |
| 2026-05-06 11:47 | 57.66072 | -31.16615 | 34168 ft | 482 kts | 284° |
| 2026-05-06 11:48 | 57.67699 | -31.28824 | 34181 ft | 481 kts | 284° |
| 2026-05-06 11:48 | 57.69313 | -31.41036 | 34181 ft | 480 kts | 284° |
| 2026-05-06 11:49 | 57.70908 | -31.53202 | 34172 ft | 481 kts | 284° |
| 2026-05-06 11:49 | 57.72502 | -31.65464 | 34161 ft | 482 kts | 284° |
| 2026-05-06 11:50 | 57.74022 | -31.77697 | 34178 ft | 484 kts | 283° |
| 2026-05-06 11:50 | 57.75558 | -31.90082 | 34175 ft | 483 kts | 283° |
| 2026-05-06 11:51 | 57.77102 | -32.02375 | 34193 ft | 484 kts | 284° |
| 2026-05-06 11:51 | 57.78649 | -32.14692 | 34176 ft | 485 kts | 284° |
| 2026-05-06 11:52 | 57.80201 | -32.27143 | 34192 ft | 486 kts | 284° |
| 2026-05-06 11:52 | 57.81731 | -32.39535 | 34169 ft | 484 kts | 284° |
| 2026-05-06 11:53 | 57.83237 | -32.51834 | 34188 ft | 486 kts | 284° |
| 2026-05-06 11:53 | 57.84755 | -32.64334 | 34183 ft | 487 kts | 284° |
| 2026-05-06 11:54 | 57.86209 | -32.76847 | 34198 ft | 488 kts | 283° |
| 2026-05-06 11:54 | 57.87643 | -32.89307 | 34196 ft | 488 kts | 283° |
| 2026-05-06 11:55 | 57.89112 | -33.01878 | 34185 ft | 490 kts | 283° |
| 2026-05-06 11:55 | 57.90585 | -33.14479 | 34183 ft | 490 kts | 283° |
| 2026-05-06 11:56 | 57.92041 | -33.27030 | 34183 ft | 490 kts | 283° |
| 2026-05-06 11:56 | 57.93491 | -33.39651 | 34194 ft | 490 kts | 283° |
| 2026-05-06 11:57 | 57.94925 | -33.52249 | 34201 ft | 489 kts | 283° |
| 2026-05-06 11:57 | 57.96349 | -33.64884 | 34186 ft | 491 kts | 283° |
| 2026-05-06 11:58 | 57.97709 | -33.77549 | 34198 ft | 493 kts | 282° |
| 2026-05-06 11:58 | 57.99062 | -33.90242 | 34184 ft | 492 kts | 282° |
| 2026-05-06 11:59 | 58.00446 | -34.03013 | 34184 ft | 495 kts | 283° |
| 2026-05-06 11:59 | 58.01830 | -34.15792 | 34196 ft | 495 kts | 283° |
| 2026-05-06 12:00 | 58.03200 | -34.28557 | 34193 ft | 495 kts | 283° |
| 2026-05-06 12:00 | 58.04558 | -34.41331 | 34197 ft | 495 kts | 283° |
| 2026-05-06 12:01 | 58.05911 | -34.54196 | 34213 ft | 495 kts | 283° |
| 2026-05-06 12:01 | 58.07245 | -34.67030 | 34213 ft | 497 kts | 282° |
| 2026-05-06 12:02 | 58.08509 | -34.79936 | 34215 ft | 498 kts | 282° |
| 2026-05-06 12:02 | 58.09783 | -34.92852 | 34235 ft | 499 kts | 282° |
| 2026-05-06 12:03 | 58.11075 | -35.05800 | 34243 ft | 498 kts | 282° |
| 2026-05-06 12:03 | 58.12364 | -35.18755 | 34238 ft | 500 kts | 282° |
| 2026-05-06 12:04 | 58.13641 | -35.31706 | 34235 ft | 500 kts | 282° |
| 2026-05-06 12:04 | 58.14910 | -35.44707 | 34241 ft | 500 kts | 282° |
| 2026-05-06 12:05 | 58.16171 | -35.57780 | 34250 ft | 501 kts | 282° |
| 2026-05-06 12:05 | 58.17402 | -35.70839 | 34255 ft | 500 kts | 281° |
| 2026-05-06 12:06 | 58.18560 | -35.83845 | 34242 ft | 501 kts | 281° |
| 2026-05-06 12:06 | 58.19745 | -35.96898 | 34249 ft | 502 kts | 281° |
| 2026-05-06 12:07 | 58.20949 | -36.10029 | 34249 ft | 503 kts | 282° |
| 2026-05-06 12:07 | 58.22147 | -36.23178 | 34256 ft | 502 kts | 282° |
| 2026-05-06 12:08 | 58.23330 | -36.36321 | 34246 ft | 502 kts | 282° |
| 2026-05-06 12:08 | 58.24495 | -36.49427 | 34254 ft | 503 kts | 282° |
| 2026-05-06 12:09 | 58.25658 | -36.62673 | 34248 ft | 503 kts | 282° |
| 2026-05-06 12:09 | 58.26755 | -36.75814 | 34246 ft | 504 kts | 280° |
| 2026-05-06 12:10 | 58.27833 | -36.89082 | 34258 ft | 502 kts | 281° |
| 2026-05-06 12:10 | 58.28923 | -37.02197 | 34250 ft | 503 kts | 281° |
| 2026-05-06 12:11 | 58.30032 | -37.15500 | 34259 ft | 505 kts | 281° |
| 2026-05-06 12:11 | 58.31122 | -37.28720 | 34252 ft | 507 kts | 281° |
| 2026-05-06 12:12 | 58.32206 | -37.42047 | 34256 ft | 506 kts | 281° |
| 2026-05-06 12:12 | 58.33278 | -37.55422 | 34255 ft | 507 kts | 281° |
| 2026-05-06 12:13 | 58.34325 | -37.68720 | 34258 ft | 507 kts | 280° |
| 2026-05-06 12:13 | 58.35302 | -37.82130 | 34259 ft | 509 kts | 279° |
| 2026-05-06 12:14 | 58.36296 | -37.95541 | 34250 ft | 508 kts | 280° |
| 2026-05-06 12:14 | 58.37302 | -38.08913 | 34256 ft | 508 kts | 280° |
| 2026-05-06 12:15 | 58.38302 | -38.22273 | 34254 ft | 509 kts | 280° |
| 2026-05-06 12:15 | 58.39299 | -38.35807 | 34255 ft | 509 kts | 280° |
| 2026-05-06 12:16 | 58.40273 | -38.49213 | 34252 ft | 511 kts | 280° |
| 2026-05-06 12:16 | 58.41239 | -38.62720 | 34261 ft | 510 kts | 280° |
| 2026-05-06 12:17 | 58.42144 | -38.76194 | 34261 ft | 511 kts | 278° |
| 2026-05-06 12:17 | 58.43029 | -38.89790 | 34251 ft | 514 kts | 279° |
| 2026-05-06 12:18 | 58.43938 | -39.03384 | 34250 ft | 514 kts | 279° |
| 2026-05-06 12:18 | 58.44850 | -39.16994 | 34249 ft | 514 kts | 279° |
| 2026-05-06 12:19 | 58.45746 | -39.30536 | 34255 ft | 515 kts | 279° |
| 2026-05-06 12:19 | 58.46636 | -39.44239 | 34266 ft | 515 kts | 279° |
| 2026-05-06 12:20 | 58.47507 | -39.57871 | 34264 ft | 515 kts | 279° |
| 2026-05-06 12:20 | 58.48350 | -39.71565 | 34267 ft | 517 kts | 277° |
| 2026-05-06 12:21 | 58.49125 | -39.85268 | 34261 ft | 517 kts | 277° |
| 2026-05-06 12:21 | 58.49930 | -39.99047 | 34260 ft | 518 kts | 278° |
| 2026-05-06 12:22 | 58.51482 | -40.12574 | 34265 ft | 516 kts | 288° |
| 2026-05-06 12:22 | 58.53545 | -40.25785 | 34273 ft | 516 kts | 289° |
| 2026-05-06 12:23 | 58.55512 | -40.39039 | 34273 ft | 516 kts | 288° |
| 2026-05-06 12:23 | 58.57390 | -40.52341 | 34275 ft | 517 kts | 287° |
| 2026-05-06 12:24 | 58.59248 | -40.65781 | 34272 ft | 516 kts | 286° |
| 2026-05-06 12:24 | 58.61028 | -40.79224 | 34268 ft | 517 kts | 286° |
| 2026-05-06 12:25 | 58.62805 | -40.92654 | 34270 ft | 517 kts | 286° |
| 2026-05-06 12:25 | 58.64616 | -41.06166 | 34270 ft | 518 kts | 286° |
| 2026-05-06 12:26 | 58.66411 | -41.19598 | 34280 ft | 518 kts | 286° |
| 2026-05-06 12:26 | 58.68194 | -41.33051 | 34285 ft | 516 kts | 286° |
| 2026-05-06 12:27 | 58.69961 | -41.46495 | 34280 ft | 518 kts | 286° |
| 2026-05-06 12:27 | 58.71730 | -41.60088 | 34291 ft | 519 kts | 286° |
| 2026-05-06 12:28 | 58.73450 | -41.73656 | 34295 ft | 518 kts | 285° |
| 2026-05-06 12:28 | 58.75113 | -41.87190 | 34296 ft | 520 kts | 285° |
| 2026-05-06 12:29 | 58.76812 | -42.00799 | 34294 ft | 521 kts | 285° |
| 2026-05-06 12:29 | 58.78529 | -42.14507 | 34292 ft | 520 kts | 285° |
| 2026-05-06 12:30 | 58.80217 | -42.28083 | 34282 ft | 520 kts | 285° |
| 2026-05-06 12:30 | 58.81897 | -42.41730 | 34284 ft | 520 kts | 285° |
| 2026-05-06 12:31 | 58.83566 | -42.55415 | 34280 ft | 520 kts | 285° |
| 2026-05-06 12:31 | 58.85212 | -42.69104 | 34278 ft | 521 kts | 284° |
| 2026-05-06 12:32 | 58.86781 | -42.82823 | 34282 ft | 523 kts | 284° |
| 2026-05-06 12:32 | 58.88373 | -42.96594 | 34286 ft | 521 kts | 284° |
| 2026-05-06 12:33 | 58.89979 | -43.10349 | 34291 ft | 521 kts | 284° |
| 2026-05-06 12:33 | 58.91576 | -43.24093 | 34286 ft | 522 kts | 284° |
| 2026-05-06 12:34 | 58.93161 | -43.37891 | 34282 ft | 522 kts | 284° |
| 2026-05-06 12:34 | 58.94735 | -43.51722 | 34283 ft | 523 kts | 284° |